Time;durP1;ratioP1;P1;durP2;ratioP2;P2;SDS_P1;SDS_P2;PMS_P1;PMS_P2;Temp;Humidity;BMP_temperature;BMP_pressure;BME280_temperature;BME280_humidity;BME280_pressure;Samples;Min_cycle;Max_cycle;Signal;HPM_P1;HPM_P2
2021/05/19 00:05:23;;;;;;;4.50;3.00;;;;;;;19.31;43.94;100650.91;31336437;28;20299;-59
2021/05/19 00:20:24;;;;;;;4.45;2.75;;;;;;;19.30;43.96;100654.53;31362211;28;20295;-60
2021/05/19 00:35:25;;;;;;;3.73;2.70;;;;;;;19.28;44.22;100661.75;31379334;28;20139;-60
2021/05/19 00:50:28;;;;;;;4.18;2.90;;;;;;;19.25;44.26;100653.13;31360552;28;20827;-59
2021/05/19 01:05:42;;;;;;;4.50;2.90;;;;;;;19.23;44.42;100673.50;31328825;28;20142;-61
2021/05/19 01:20:43;;;;;;;3.75;2.60;;;;;;;19.23;44.37;100677.94;31347153;28;20037;-61
2021/05/19 01:35:44;;;;;;;4.43;2.70;;;;;;;19.21;44.24;100678.06;31357764;28;20051;-61
2021/05/19 01:50:45;;;;;;;4.07;2.60;;;;;;;19.20;44.30;100678.22;31331043;28;20291;-61
2021/05/19 02:05:46;;;;;;;4.80;2.75;;;;;;;19.20;44.57;100694.03;31325297;28;20346;-61
2021/05/19 02:20:47;;;;;;;5.10;2.50;;;;;;;19.20;44.82;100694.03;31343757;28;20045;-60
2021/05/19 02:35:48;;;;;;;5.03;2.90;;;;;;;19.19;44.54;100701.09;31335689;28;20052;-59
2021/05/19 02:50:49;;;;;;;3.17;2.23;;;;;;;19.18;44.60;100712.59;31344640;28;20291;-60
2021/05/19 03:05:50;;;;;;;3.72;2.45;;;;;;;19.18;44.65;100722.31;31336598;28;20380;-59
2021/05/19 03:20:51;;;;;;;3.53;2.20;;;;;;;19.17;44.75;100734.66;31337408;28;20063;-59
2021/05/19 03:35:52;;;;;;;3.67;2.50;;;;;;;19.18;44.83;100743.41;31331355;28;20654;-60
2021/05/19 03:50:53;;;;;;;3.40;2.30;;;;;;;19.20;44.81;100746.72;31347165;28;20287;-58
2021/05/19 04:05:54;;;;;;;4.15;2.53;;;;;;;19.21;44.81;100754.47;31345535;28;20291;-60
2021/05/19 04:20:55;;;;;;;3.37;2.17;;;;;;;19.28;44.71;100767.16;31368059;28;20045;-60
2021/05/19 04:35:56;;;;;;;3.90;2.30;;;;;;;19.35;44.37;100774.38;31356343;28;20696;-60
2021/05/19 04:50:57;;;;;;;2.93;2.20;;;;;;;19.46;44.13;100776.09;31350705;28;20329;-58
2021/05/19 05:05:58;;;;;;;3.47;2.47;;;;;;;19.56;44.18;100798.06;31353598;28;20657;-59
2021/05/19 05:20:59;;;;;;;3.80;2.30;;;;;;;19.55;44.08;100791.13;31352275;28;20693;-60
2021/05/19 05:36:00;;;;;;;3.00;2.40;;;;;;;19.51;44.14;100813.44;31350409;28;20476;-60
2021/05/19 05:51:01;;;;;;;3.27;2.13;;;;;;;19.56;44.23;100813.03;31344189;28;20282;-60
2021/05/19 06:06:02;;;;;;;3.13;2.20;;;;;;;19.63;44.00;100828.22;31352550;28;20348;-60
2021/05/19 06:21:04;;;;;;;3.33;2.20;;;;;;;19.69;44.15;100837.41;31362555;28;20048;-60
2021/05/19 06:36:05;;;;;;;6.35;3.67;;;;;;;18.92;41.79;100836.00;31324356;28;20049;-57
2021/05/19 06:51:06;;;;;;;5.70;3.40;;;;;;;18.72;41.53;100849.97;31309920;28;20038;-56
2021/05/19 07:06:07;;;;;;;4.33;3.20;;;;;;;18.95;40.10;100848.91;31311611;28;20514;-60
2021/05/19 07:21:08;;;;;;;4.03;2.20;;;;;;;19.23;38.15;100851.88;31339892;28;20298;-63
2021/05/19 07:36:09;;;;;;;3.70;2.17;;;;;;;19.69;39.50;100858.50;31329981;28;20298;-63
2021/05/19 07:51:10;;;;;;;4.47;2.73;;;;;;;20.33;39.21;100870.50;31346975;28;20275;-63
2021/05/19 08:06:11;;;;;;;7.17;2.70;;;;;;;20.68;39.44;100863.88;31350374;28;20307;-64
2021/05/19 08:21:12;;;;;;;4.10;2.57;;;;;;;20.70;39.71;100869.84;31327507;28;20306;-64
2021/05/19 08:36:13;;;;;;;5.37;2.63;;;;;;;20.85;39.66;100871.13;31356365;28;20309;-64
2021/05/19 08:51:14;;;;;;;3.47;2.47;;;;;;;21.00;39.80;100882.06;31359000;28;20287;-64
2021/05/19 09:06:20;;;;;;;4.63;2.50;;;;;;;20.92;40.42;100888.06;31335805;28;20039;-65
2021/05/19 09:21:36;;;;;;;4.70;2.50;;;;;;;21.05;40.93;100874.59;31332658;28;20300;-63
2021/05/19 09:36:37;;;;;;;5.07;2.35;;;;;;;21.24;40.62;100876.34;31336280;28;20299;-62
2021/05/19 09:51:39;;;;;;;3.87;2.20;;;;;;;21.30;40.64;100867.00;31338388;28;20025;-65
2021/05/19 10:06:41;;;;;;;29.17;22.63;;;;;;;21.39;38.38;100883.81;31321434;28;20295;-62
2021/05/19 10:21:42;;;;;;;3.50;2.30;;;;;;;21.24;33.86;100865.78;31338237;28;20099;-62
2021/05/19 10:36:43;;;;;;;4.57;1.90;;;;;;;21.34;33.06;100865.75;31324434;28;20395;-60
2021/05/19 10:51:53;;;;;;;31.30;4.20;;;;;;;21.48;32.91;100867.97;31328201;28;20290;-60
2021/05/19 11:06:57;;;;;;;4.97;1.98;;;;;;;21.46;32.04;100863.78;31307476;28;20300;-59
2021/05/19 11:21:59;;;;;;;4.68;1.83;;;;;;;21.98;30.42;100858.00;31349918;28;20087;-60
2021/05/19 11:37:00;;;;;;;4.03;1.73;;;;;;;22.14;31.60;100856.38;31357376;28;20037;-63
2021/05/19 11:52:01;;;;;;;4.23;1.50;;;;;;;21.86;33.88;100850.28;31344173;28;20487;-61
2021/05/19 12:07:03;;;;;;;7.57;2.23;;;;;;;21.78;35.66;100851.97;31330702;28;20295;-63
2021/05/19 12:22:07;;;;;;;3.78;1.95;;;;;;;21.83;36.28;100849.72;31328529;28;20292;-62
2021/05/19 12:37:08;;;;;;;5.13;2.40;;;;;;;21.82;36.68;100846.25;31337218;28;20056;-63
2021/05/19 12:52:17;;;;;;;3.45;2.20;;;;;;;21.83;36.60;100853.22;31350649;28;20033;-64
2021/05/19 13:07:18;;;;;;;3.75;1.88;;;;;;;21.75;37.31;100855.75;31327748;28;20445;-63
2021/05/19 13:22:26;;;;;;;3.90;1.88;;;;;;;21.66;37.82;100859.28;31337943;28;20414;-63
2021/05/19 13:37:27;;;;;;;3.58;2.03;;;;;;;21.67;37.99;100853.84;31319915;28;20039;-62
2021/05/19 13:52:28;;;;;;;4.17;2.30;;;;;;;21.68;38.27;100844.91;31346733;28;20056;-65
2021/05/19 14:07:29;;;;;;;4.27;2.00;;;;;;;21.43;34.51;100835.84;31319140;28;20297;-63
2021/05/19 15:08:29;;;;;;;3.03;1.80;;;;;;;21.12;37.17;100832.56;31337122;28;20030;-63
2021/05/19 15:23:30;;;;;;;4.00;1.97;;;;;;;21.15;37.17;100829.63;31328830;28;20045;-63
2021/05/19 15:38:31;;;;;;;3.73;1.67;;;;;;;21.11;37.83;100841.47;31320827;28;20299;-63
2021/05/19 15:53:32;;;;;;;4.50;1.67;;;;;;;21.10;38.04;100843.28;31326929;28;20341;-65
2021/05/19 16:08:32;;;;;;;4.37;1.83;;;;;;;21.02;36.56;100843.13;31330285;28;20295;-63
2021/05/19 16:23:33;;;;;;;3.57;2.43;;;;;;;20.69;33.40;100847.06;31360306;28;20300;-64
2021/05/19 16:38:36;;;;;;;5.20;3.10;;;;;;;20.57;37.37;100845.53;31344451;28;20312;-64
2021/05/19 16:53:37;;;;;;;6.82;2.75;;;;;;;20.65;37.83;100849.16;31296900;28;20324;-68
2021/05/19 17:08:38;;;;;;;7.57;2.67;;;;;;;20.62;38.05;100849.44;31349117;28;20029;-68
2021/05/19 17:23:39;;;;;;;4.90;2.70;;;;;;;20.61;38.54;100853.03;31345093;28;20054;-68
2021/05/19 17:38:40;;;;;;;5.87;2.37;;;;;;;20.48;36.27;100853.28;31372117;28;20647;-63
2021/05/19 17:53:41;;;;;;;3.10;1.60;;;;;;;19.78;32.40;100854.25;31364395;28;20278;-65
2021/05/19 18:08:42;;;;;;;4.17;1.87;;;;;;;19.46;32.06;100871.00;31387873;28;20040;-65
2021/05/19 18:23:43;;;;;;;3.23;1.67;;;;;;;19.67;34.86;100878.88;31333811;28;20292;-67
2021/05/19 18:38:44;;;;;;;3.77;1.90;;;;;;;19.78;35.36;100883.25;31332838;28;20386;-67
2021/05/19 18:53:45;;;;;;;3.60;2.07;;;;;;;19.81;36.01;100902.28;31347625;28;21645;-68
2021/05/19 19:08:46;;;;;;;4.07;1.80;;;;;;;19.87;38.05;100914.09;31316659;28;20713;-69
2021/05/19 19:23:47;;;;;;;2.90;2.00;;;;;;;19.91;38.44;100936.63;31334822;28;20291;-70
2021/05/19 19:38:48;;;;;;;3.83;1.80;;;;;;;19.94;38.59;100938.16;31376332;28;20124;-71
2021/05/19 19:53:50;;;;;;;3.30;1.90;;;;;;;19.96;38.98;100959.97;31366372;28;20279;-70
2021/05/19 20:08:50;;;;;;;7.10;2.60;;;;;;;19.97;39.63;100969.53;31303332;28;20448;-71
2021/05/19 20:23:54;;;;;;;6.10;4.23;;;;;;;20.00;39.86;100977.22;31337827;28;20150;-70
2021/05/19 20:38:56;;;;;;;4.78;3.10;;;;;;;20.03;40.42;100992.78;31304046;28;20631;-70
2021/05/19 20:53:57;;;;;;;4.70;3.30;;;;;;;20.05;40.68;100985.56;31363104;28;20024;-70
2021/05/19 21:08:59;;;;;;;3.90;3.00;;;;;;;20.07;41.01;100999.47;31342213;28;20032;-70
2021/05/19 21:24:00;;;;;;;5.03;3.10;;;;;;;20.07;41.15;101012.66;31333233;28;20639;-69
2021/05/19 21:39:01;;;;;;;4.33;3.10;;;;;;;20.07;41.31;101010.00;31326682;28;20481;-71
2021/05/19 21:54:02;;;;;;;3.95;2.53;;;;;;;20.07;40.49;101020.56;31360564;28;20288;-71
2021/05/19 22:09:05;;;;;;;4.60;2.83;;;;;;;20.05;40.66;101031.25;31286956;28;20381;-71
2021/05/19 22:39:08;;;;;;;6.78;2.88;;;;;;;20.04;41.15;101032.22;31301540;28;20449;-71
2021/05/19 22:54:10;;;;;;;4.55;2.60;;;;;;;19.28;38.32;101036.78;31300103;28;20038;-66
2021/05/19 23:09:11;;;;;;;3.47;2.38;;;;;;;18.68;40.47;101038.94;31320918;28;20048;-68
2021/05/19 23:24:12;;;;;;;3.57;2.10;;;;;;;19.13;41.26;101035.41;31313161;28;20053;-68
2021/05/19 23:39:13;;;;;;;3.67;2.40;;;;;;;19.41;40.83;101039.25;31474650;28;21122;-67
2021/05/19 23:54:16;;;;;;;3.47;1.98;;;;;;;19.54;41.01;101041.69;31482613;28;20032;-67
